sensor_id;sensor_type;location;lat;lon;timestamp;pressure;altitude;pressure_sealevel;temperature;humidity
26775;BME280;14362;51.902;7.626;2024-02-04T00:03:32;101686.38;;;9.17;93.03
26775;BME280;14362;51.902;7.626;2024-02-04T00:07:34;101689.91;;;9.18;93.28
26775;BME280;14362;51.902;7.626;2024-02-04T00:11:37;101694.25;;;9.16;93.24
26775;BME280;14362;51.902;7.626;2024-02-04T00:15:38;101689.00;;;9.22;93.72
26775;BME280;14362;51.902;7.626;2024-02-04T00:19:40;101692.50;;;9.22;93.33
26775;BME280;14362;51.902;7.626;2024-02-04T00:23:41;101682.00;;;9.21;93.28
26775;BME280;14362;51.902;7.626;2024-02-04T00:27:44;101679.38;;;9.22;93.48
26775;BME280;14362;51.902;7.626;2024-02-04T00:31:46;101682.03;;;9.24;93.64
26775;BME280;14362;51.902;7.626;2024-02-04T00:35:47;101681.13;;;9.22;93.17
26775;BME280;14362;51.902;7.626;2024-02-04T00:39:49;101682.00;;;9.22;93.05
26775;BME280;14362;51.902;7.626;2024-02-04T00:43:51;101691.66;;;9.20;93.09
26775;BME280;14362;51.902;7.626;2024-02-04T00:47:53;101689.91;;;9.19;93.13
26775;BME280;14362;51.902;7.626;2024-02-04T00:51:54;101690.78;;;9.21;93.62
26775;BME280;14362;51.902;7.626;2024-02-04T00:55:56;101687.28;;;9.18;93.12
26775;BME280;14362;51.902;7.626;2024-02-04T00:59:59;101675.00;;;9.18;93.50
26775;BME280;14362;51.902;7.626;2024-02-04T01:04:00;101678.50;;;9.20;93.16
26775;BME280;14362;51.902;7.626;2024-02-04T01:08:01;101678.50;;;9.20;93.50
26775;BME280;14362;51.902;7.626;2024-02-04T01:12:03;101681.13;;;9.14;93.57
26775;BME280;14362;51.902;7.626;2024-02-04T01:16:06;101679.38;;;9.15;93.66
26775;BME280;14362;51.902;7.626;2024-02-04T01:20:09;101678.50;;;9.13;93.46
26775;BME280;14362;51.902;7.626;2024-02-04T01:24:11;101680.25;;;9.11;93.67
26775;BME280;14362;51.902;7.626;2024-02-04T01:28:12;101678.50;;;9.10;93.81
26775;BME280;14362;51.902;7.626;2024-02-04T01:32:15;101682.03;;;9.09;93.65
26775;BME280;14362;51.902;7.626;2024-02-04T01:36:16;101687.25;;;9.07;93.84
26775;BME280;14362;51.902;7.626;2024-02-04T01:40:18;101689.88;;;9.07;93.98
26775;BME280;14362;51.902;7.626;2024-02-04T01:44:19;101692.53;;;9.12;93.88
26775;BME280;14362;51.902;7.626;2024-02-04T01:48:23;101699.50;;;9.10;93.56
26775;BME280;14362;51.902;7.626;2024-02-04T01:52:26;101690.78;;;9.17;94.08
26775;BME280;14362;51.902;7.626;2024-02-04T01:56:28;101679.38;;;9.15;93.89
26775;BME280;14362;51.902;7.626;2024-02-04T02:00:29;101675.00;;;9.12;93.97
26775;BME280;14362;51.902;7.626;2024-02-04T02:04:32;101670.63;;;9.13;93.82
26775;BME280;14362;51.902;7.626;2024-02-04T02:08:34;101668.88;;;9.10;93.64
26775;BME280;14362;51.902;7.626;2024-02-04T02:12:39;101682.00;;;9.07;93.79
26775;BME280;14362;51.902;7.626;2024-02-04T02:16:44;101682.00;;;9.05;93.79
26775;BME280;14362;51.902;7.626;2024-02-04T02:20:59;101672.38;;;9.04;93.83
26775;BME280;14362;51.902;7.626;2024-02-04T02:25:07;101667.13;;;9.03;92.93
26775;BME280;14362;51.902;7.626;2024-02-04T02:29:09;101678.50;;;8.94;93.00
26775;BME280;14362;51.902;7.626;2024-02-04T02:33:10;101682.88;;;8.94;92.31
26775;BME280;14362;51.902;7.626;2024-02-04T02:37:22;101674.16;;;8.93;92.63
26775;BME280;14362;51.902;7.626;2024-02-04T02:41:29;101657.50;;;8.82;92.21
26775;BME280;14362;51.902;7.626;2024-02-04T02:45:31;101669.72;;;8.81;92.34
26775;BME280;14362;51.902;7.626;2024-02-04T02:49:33;101668.00;;;8.74;92.31
26775;BME280;14362;51.902;7.626;2024-02-04T02:53:35;101667.97;;;8.68;92.42
26775;BME280;14362;51.902;7.626;2024-02-04T02:57:37;101662.72;;;8.69;92.34
26775;BME280;14362;51.902;7.626;2024-02-04T03:01:39;101647.84;;;8.68;92.31
26775;BME280;14362;51.902;7.626;2024-02-04T03:05:41;101641.75;;;8.65;92.54
26775;BME280;14362;51.902;7.626;2024-02-04T03:09:42;101648.72;;;8.66;91.69
26775;BME280;14362;51.902;7.626;2024-02-04T03:13:45;101653.97;;;8.64;91.93
26775;BME280;14362;51.902;7.626;2024-02-04T03:17:46;101638.22;;;8.60;92.86
26775;BME280;14362;51.902;7.626;2024-02-04T03:21:48;101623.34;;;8.55;92.08
26775;BME280;14362;51.902;7.626;2024-02-04T03:25:49;101640.84;;;8.55;92.52
26775;BME280;14362;51.902;7.626;2024-02-04T03:29:53;101648.72;;;8.60;92.89
26775;BME280;14362;51.902;7.626;2024-02-04T03:33:54;101637.34;;;8.62;93.39
26775;BME280;14362;51.902;7.626;2024-02-04T03:37:56;101628.59;;;8.63;93.29
26775;BME280;14362;51.902;7.626;2024-02-04T03:41:57;101628.63;;;8.65;92.85
26775;BME280;14362;51.902;7.626;2024-02-04T03:46:00;101625.09;;;8.69;93.37
26775;BME280;14362;51.902;7.626;2024-02-04T03:50:02;101646.09;;;8.64;92.84
26775;BME280;14362;51.902;7.626;2024-02-04T03:54:04;101634.72;;;8.59;92.62
26775;BME280;14362;51.902;7.626;2024-02-04T03:58:05;101645.22;;;8.53;93.04
26775;BME280;14362;51.902;7.626;2024-02-04T04:02:08;101631.22;;;8.55;92.91
26775;BME280;14362;51.902;7.626;2024-02-04T04:06:10;101640.84;;;8.56;93.77
26775;BME280;14362;51.902;7.626;2024-02-04T04:10:14;101633.84;;;8.55;93.26
26775;BME280;14362;51.902;7.626;2024-02-04T04:14:16;101641.72;;;8.48;93.61
26775;BME280;14362;51.902;7.626;2024-02-04T04:18:19;101639.97;;;8.53;93.39
26775;BME280;14362;51.902;7.626;2024-02-04T04:22:20;101639.97;;;8.53;93.44
26775;BME280;14362;51.902;7.626;2024-02-04T04:26:22;101638.22;;;8.55;93.28
26775;BME280;14362;51.902;7.626;2024-02-04T04:30:23;101646.97;;;8.58;93.48
26775;BME280;14362;51.902;7.626;2024-02-04T04:34:26;101649.59;;;8.58;93.28
26775;BME280;14362;51.902;7.626;2024-02-04T04:38:27;101651.34;;;8.61;93.60
26775;BME280;14362;51.902;7.626;2024-02-04T04:42:29;101652.22;;;8.63;93.37
26775;BME280;14362;51.902;7.626;2024-02-04T04:46:31;101654.88;;;8.65;93.02
26775;BME280;14362;51.902;7.626;2024-02-04T04:50:34;101655.72;;;8.67;93.05
26775;BME280;14362;51.902;7.626;2024-02-04T04:54:35;101639.09;;;8.69;93.04
26775;BME280;14362;51.902;7.626;2024-02-04T04:58:37;101649.59;;;8.69;93.07
26775;BME280;14362;51.902;7.626;2024-02-04T05:02:40;101640.88;;;8.67;93.06
26775;BME280;14362;51.902;7.626;2024-02-04T05:06:44;101648.72;;;8.73;92.61
26775;BME280;14362;51.902;7.626;2024-02-04T05:10:45;101644.38;;;8.74;92.22
26775;BME280;14362;51.902;7.626;2024-02-04T05:14:47;101647.84;;;8.74;92.75
26775;BME280;14362;51.902;7.626;2024-02-04T05:18:48;101657.50;;;8.72;92.36
26775;BME280;14362;51.902;7.626;2024-02-04T05:22:51;101640.84;;;8.72;93.23
26775;BME280;14362;51.902;7.626;2024-02-04T05:26:54;101638.22;;;8.72;92.74
26775;BME280;14362;51.902;7.626;2024-02-04T05:30:55;101636.47;;;8.68;93.12
26775;BME280;14362;51.902;7.626;2024-02-04T05:34:57;101625.09;;;8.64;92.78
26775;BME280;14362;51.902;7.626;2024-02-04T05:39:08;101616.34;;;8.62;92.80
26775;BME280;14362;51.902;7.626;2024-02-04T05:43:10;101605.81;;;8.61;93.37
26775;BME280;14362;51.902;7.626;2024-02-04T05:47:11;101597.97;;;8.57;93.29
26775;BME280;14362;51.902;7.626;2024-02-04T05:51:13;101603.22;;;8.56;92.97
26775;BME280;14362;51.902;7.626;2024-02-04T05:55:16;101595.34;;;8.56;92.70
26775;BME280;14362;51.902;7.626;2024-02-04T05:59:17;101598.84;;;8.52;92.91
26775;BME280;14362;51.902;7.626;2024-02-04T06:03:19;101585.75;;;8.58;92.02
26775;BME280;14362;51.902;7.626;2024-02-04T06:07:20;101593.59;;;8.50;92.44
26775;BME280;14362;51.902;7.626;2024-02-04T06:11:23;101604.97;;;8.48;92.35
26775;BME280;14362;51.902;7.626;2024-02-04T06:15:24;101597.97;;;8.50;92.75
26775;BME280;14362;51.902;7.626;2024-02-04T06:19:26;101604.97;;;8.52;92.46
26775;BME280;14362;51.902;7.626;2024-02-04T06:23:27;101605.84;;;8.53;91.60
26775;BME280;14362;51.902;7.626;2024-02-04T06:27:30;101597.97;;;8.57;91.07
26775;BME280;14362;51.902;7.626;2024-02-04T06:31:32;101595.34;;;8.56;91.25
26775;BME280;14362;51.902;7.626;2024-02-04T06:35:33;101575.22;;;8.52;91.23
26775;BME280;14362;51.902;7.626;2024-02-04T06:39:34;101569.09;;;8.50;91.29
26775;BME280;14362;51.902;7.626;2024-02-04T06:43:38;101558.56;;;8.45;91.09
26775;BME280;14362;51.902;7.626;2024-02-04T06:47:43;101553.31;;;8.45;91.24
26775;BME280;14362;51.902;7.626;2024-02-04T06:51:45;101550.69;;;8.42;91.29
26775;BME280;14362;51.902;7.626;2024-02-04T06:55:47;101573.44;;;8.40;91.77
26775;BME280;14362;51.902;7.626;2024-02-04T06:59:50;101584.81;;;8.40;91.71
26775;BME280;14362;51.902;7.626;2024-02-04T07:03:51;101589.19;;;8.41;91.83
26775;BME280;14362;51.902;7.626;2024-02-04T07:07:52;101593.53;;;8.38;92.29
26775;BME280;14362;51.902;7.626;2024-02-04T07:11:54;101579.56;;;8.37;92.03
26775;BME280;14362;51.902;7.626;2024-02-04T07:15:57;101570.81;;;8.35;92.19
26775;BME280;14362;51.902;7.626;2024-02-04T07:19:59;101576.03;;;8.35;91.92
26775;BME280;14362;51.902;7.626;2024-02-04T07:24:00;101575.19;;;8.35;91.76
26775;BME280;14362;51.902;7.626;2024-02-04T07:28:03;101570.81;;;8.35;91.97
26775;BME280;14362;51.902;7.626;2024-02-04T07:32:06;101589.16;;;8.37;91.37
26775;BME280;14362;51.902;7.626;2024-02-04T07:36:08;101576.06;;;8.43;90.98
26775;BME280;14362;51.902;7.626;2024-02-04T07:40:10;101577.81;;;8.36;90.76
26775;BME280;14362;51.902;7.626;2024-02-04T07:44:11;101573.41;;;8.37;89.63
26775;BME280;14362;51.902;7.626;2024-02-04T07:48:14;101575.16;;;8.33;88.20
26775;BME280;14362;51.902;7.626;2024-02-04T07:52:16;101602.25;;;8.31;87.78
26775;BME280;14362;51.902;7.626;2024-02-04T07:56:18;101608.38;;;8.27;86.58
26775;BME280;14362;51.902;7.626;2024-02-04T08:00:19;101609.28;;;8.29;86.77
26775;BME280;14362;51.902;7.626;2024-02-04T08:04:22;101590.88;;;8.13;87.35
26775;BME280;14362;51.902;7.626;2024-02-04T08:08:24;101573.34;;;8.00;88.22
26775;BME280;14362;51.902;7.626;2024-02-04T08:12:25;101577.72;;;7.99;89.08
26775;BME280;14362;51.902;7.626;2024-02-04T08:16:27;101569.84;;;7.88;88.79
26775;BME280;14362;51.902;7.626;2024-02-04T08:20:29;101583.78;;;7.83;89.47
26775;BME280;14362;51.902;7.626;2024-02-04T08:24:31;101572.47;;;7.87;89.77
26775;BME280;14362;51.902;7.626;2024-02-04T08:28:33;101573.31;;;7.89;89.14
26775;BME280;14362;51.902;7.626;2024-02-04T08:32:34;101570.72;;;7.86;89.93
26775;BME280;14362;51.902;7.626;2024-02-04T08:36:37;101557.56;;;7.83;89.43
26775;BME280;14362;51.902;7.626;2024-02-04T08:40:38;101571.56;;;7.82;90.29
26775;BME280;14362;51.902;7.626;2024-02-04T08:44:40;101571.53;;;7.80;89.12
26775;BME280;14362;51.902;7.626;2024-02-04T08:48:42;101564.56;;;7.82;89.25
26775;BME280;14362;51.902;7.626;2024-02-04T08:52:45;101564.59;;;7.87;89.12
26775;BME280;14362;51.902;7.626;2024-02-04T08:56:47;101562.84;;;7.87;88.92
26775;BME280;14362;51.902;7.626;2024-02-04T09:00:48;101575.94;;;7.86;89.46
26775;BME280;14362;51.902;7.626;2024-02-04T09:04:49;101575.97;;;7.92;88.84
26775;BME280;14362;51.902;7.626;2024-02-04T09:08:52;101568.09;;;7.94;88.84
26775;BME280;14362;51.902;7.626;2024-02-04T09:12:54;101582.97;;;7.96;89.01
26775;BME280;14362;51.902;7.626;2024-02-04T09:16:55;101564.59;;;7.88;88.94
26775;BME280;14362;51.902;7.626;2024-02-04T09:20:57;101568.06;;;7.90;88.09
26775;BME280;14362;51.902;7.626;2024-02-04T09:24:59;101573.34;;;7.94;88.75
26775;BME280;14362;51.902;7.626;2024-02-04T09:29:01;101558.47;;;7.97;87.30
26775;BME280;14362;51.902;7.626;2024-02-04T09:33:03;101562.88;;;8.01;87.56
26775;BME280;14362;51.902;7.626;2024-02-04T09:37:04;101565.50;;;8.06;87.82
26775;BME280;14362;51.902;7.626;2024-02-04T09:41:07;101569.00;;;8.11;87.27
26775;BME280;14362;51.902;7.626;2024-02-04T09:45:09;101558.53;;;8.16;87.76
26775;BME280;14362;51.902;7.626;2024-02-04T09:49:12;101561.16;;;8.17;88.12
26775;BME280;14362;51.902;7.626;2024-02-04T09:53:15;101569.03;;;8.19;87.74
26775;BME280;14362;51.902;7.626;2024-02-04T09:57:23;101562.03;;;8.21;88.45
26775;BME280;14362;51.902;7.626;2024-02-04T10:01:24;101556.78;;;8.24;88.96
26775;BME280;14362;51.902;7.626;2024-02-04T10:05:27;101569.03;;;8.36;89.40
26775;BME280;14362;51.902;7.626;2024-02-04T10:09:28;101568.16;;;8.37;89.39
26775;BME280;14362;51.902;7.626;2024-02-04T10:13:43;101554.25;;;8.50;89.65
26775;BME280;14362;51.902;7.626;2024-02-04T10:17:45;101548.94;;;8.66;89.69
26775;BME280;14362;51.902;7.626;2024-02-04T10:21:57;101562.97;;;8.76;89.23
26775;BME280;14362;51.902;7.626;2024-02-04T10:25:59;101555.06;;;8.86;88.50
26775;BME280;14362;51.902;7.626;2024-02-04T10:30:03;101545.44;;;8.90;87.80
26775;BME280;14362;51.902;7.626;2024-02-04T10:34:05;101541.94;;;8.86;88.15
26775;BME280;14362;51.902;7.626;2024-02-04T10:38:07;101540.16;;;8.91;87.78
26775;BME280;14362;51.902;7.626;2024-02-04T10:42:12;101541.06;;;8.98;88.23
26775;BME280;14362;51.902;7.626;2024-02-04T10:46:18;101552.44;;;8.99;87.53
26775;BME280;14362;51.902;7.626;2024-02-04T10:50:20;101548.06;;;8.90;87.73
26775;BME280;14362;51.902;7.626;2024-02-04T10:54:24;101557.69;;;8.86;87.47
26775;BME280;14362;51.902;7.626;2024-02-04T10:58:31;101548.06;;;8.82;88.13
26775;BME280;14362;51.902;7.626;2024-02-04T11:02:35;101541.94;;;8.85;88.07
26775;BME280;14362;51.902;7.626;2024-02-04T11:06:37;101541.94;;;8.96;87.71
26775;BME280;14362;51.902;7.626;2024-02-04T11:10:42;101534.91;;;9.04;87.70
26775;BME280;14362;51.902;7.626;2024-02-04T11:14:46;101542.78;;;9.10;87.65
26775;BME280;14362;51.902;7.626;2024-02-04T11:18:58;101540.16;;;9.04;87.75
26775;BME280;14362;51.902;7.626;2024-02-04T11:23:24;101530.56;;;8.94;87.67
26775;BME280;14362;51.902;7.626;2024-02-04T11:27:29;101519.16;;;8.96;88.16
26775;BME280;14362;51.902;7.626;2024-02-04T11:31:31;101504.31;;;8.92;89.15
26775;BME280;14362;51.902;7.626;2024-02-04T11:35:34;101499.91;;;8.96;88.61
26775;BME280;14362;51.902;7.626;2024-02-04T11:39:36;101499.00;;;8.97;88.87
26775;BME280;14362;51.902;7.626;2024-02-04T11:43:37;101504.28;;;8.98;88.71
26775;BME280;14362;51.902;7.626;2024-02-04T11:47:39;101498.13;;;9.04;88.56
26775;BME280;14362;51.902;7.626;2024-02-04T11:51:44;101492.88;;;9.04;88.68
26775;BME280;14362;51.902;7.626;2024-02-04T11:55:46;101485.84;;;9.09;88.15
26775;BME280;14362;51.902;7.626;2024-02-04T11:59:48;101471.84;;;9.12;87.85
26775;BME280;14362;51.902;7.626;2024-02-04T12:03:51;101468.34;;;9.13;87.71
26775;BME280;14362;51.902;7.626;2024-02-04T12:07:54;101476.16;;;9.25;86.94
26775;BME280;14362;51.902;7.626;2024-02-04T12:11:56;101487.53;;;9.33;86.10
26775;BME280;14362;51.902;7.626;2024-02-04T12:15:57;101486.63;;;9.36;86.44
26775;BME280;14362;51.902;7.626;2024-02-04T12:19:59;101488.38;;;9.38;86.83
26775;BME280;14362;51.902;7.626;2024-02-04T12:24:03;101484.00;;;9.34;87.00
26775;BME280;14362;51.902;7.626;2024-02-04T12:28:05;101475.28;;;9.31;88.37
26775;BME280;14362;51.902;7.626;2024-02-04T12:32:07;101480.56;;;9.23;88.60
26775;BME280;14362;51.902;7.626;2024-02-04T12:36:08;101470.91;;;9.23;89.27
26775;BME280;14362;51.902;7.626;2024-02-04T12:40:12;101473.56;;;9.17;89.57
26775;BME280;14362;51.902;7.626;2024-02-04T12:44:22;101453.44;;;9.15;90.11
26775;BME280;14362;51.902;7.626;2024-02-04T12:48:23;101463.06;;;9.10;90.54
26775;BME280;14362;51.902;7.626;2024-02-04T12:52:26;101452.59;;;9.08;91.40
26775;BME280;14362;51.902;7.626;2024-02-04T12:56:29;101447.31;;;9.13;91.12
26775;BME280;14362;51.902;7.626;2024-02-04T13:00:40;101450.81;;;9.18;91.16
26775;BME280;14362;51.902;7.626;2024-02-04T13:04:42;101447.31;;;9.13;91.62
26775;BME280;14362;51.902;7.626;2024-02-04T13:08:44;101449.94;;;9.14;91.78
26775;BME280;14362;51.902;7.626;2024-02-04T13:12:57;101459.56;;;9.12;91.70
26775;BME280;14362;51.902;7.626;2024-02-04T13:17:00;101468.34;;;9.13;91.57
26775;BME280;14362;51.902;7.626;2024-02-04T13:21:02;101483.22;;;9.12;91.90
26775;BME280;14362;51.902;7.626;2024-02-04T13:25:04;101464.84;;;9.09;91.98
26775;BME280;14362;51.902;7.626;2024-02-04T13:29:08;101453.47;;;9.09;92.17
26775;BME280;14362;51.902;7.626;2024-02-04T13:33:09;101443.81;;;9.09;92.14
26775;BME280;14362;51.902;7.626;2024-02-04T13:37:11;101428.97;;;9.06;92.34
26775;BME280;14362;51.902;7.626;2024-02-04T13:41:12;101414.94;;;9.04;92.62
26775;BME280;14362;51.902;7.626;2024-02-04T13:45:15;101429.81;;;9.07;92.98
26775;BME280;14362;51.902;7.626;2024-02-04T13:49:17;101445.59;;;9.05;92.48
26775;BME280;14362;51.902;7.626;2024-02-04T13:53:18;101446.47;;;9.06;92.29
26775;BME280;14362;51.902;7.626;2024-02-04T13:57:20;101443.00;;;8.96;92.47
26775;BME280;14362;51.902;7.626;2024-02-04T14:01:24;101452.63;;;8.93;92.23
26775;BME280;14362;51.902;7.626;2024-02-04T14:05:25;101429.00;;;8.86;92.04
26775;BME280;14362;51.902;7.626;2024-02-04T14:09:27;101419.38;;;8.84;92.36
26775;BME280;14362;51.902;7.626;2024-02-04T14:13:28;101414.19;;;8.79;92.96
26775;BME280;14362;51.902;7.626;2024-02-04T14:17:31;101403.69;;;8.74;92.86
26775;BME280;14362;51.902;7.626;2024-02-04T14:21:32;101394.03;;;8.73;92.37
26775;BME280;14362;51.902;7.626;2024-02-04T14:25:34;101413.31;;;8.72;92.66
26775;BME280;14362;51.902;7.626;2024-02-04T14:29:35;101396.69;;;8.70;93.44
26775;BME280;14362;51.902;7.626;2024-02-04T14:33:38;101400.19;;;8.71;92.70
26775;BME280;14362;51.902;7.626;2024-02-04T14:37:40;101408.94;;;8.71;93.36
26775;BME280;14362;51.902;7.626;2024-02-04T14:41:42;101411.56;;;8.68;93.54
26775;BME280;14362;51.902;7.626;2024-02-04T14:45:44;101400.22;;;8.66;93.19
26775;BME280;14362;51.902;7.626;2024-02-04T14:49:47;101402.81;;;8.71;93.24
26775;BME280;14362;51.902;7.626;2024-02-04T14:53:49;101400.19;;;8.74;93.23
26775;BME280;14362;51.902;7.626;2024-02-04T14:57:50;101404.56;;;8.75;93.69
26775;BME280;14362;51.902;7.626;2024-02-04T15:01:52;101409.78;;;8.86;93.60
26775;BME280;14362;51.902;7.626;2024-02-04T15:05:54;101393.97;;;8.94;93.85
26775;BME280;14362;51.902;7.626;2024-02-04T15:09:56;101380.84;;;8.95;93.78
26775;BME280;14362;51.902;7.626;2024-02-04T15:13:58;101361.56;;;9.02;93.97
26775;BME280;14362;51.902;7.626;2024-02-04T15:18:00;101360.66;;;9.02;93.90
26775;BME280;14362;51.902;7.626;2024-02-04T15:22:04;101372.03;;;9.05;94.02
26775;BME280;14362;51.902;7.626;2024-02-04T15:26:07;101374.66;;;9.05;93.79
26775;BME280;14362;51.902;7.626;2024-02-04T15:30:10;101369.41;;;9.05;93.84
26775;BME280;14362;51.902;7.626;2024-02-04T15:34:12;101365.06;;;9.01;93.70
26775;BME280;14362;51.902;7.626;2024-02-04T15:38:15;101371.19;;;9.00;93.59
26775;BME280;14362;51.902;7.626;2024-02-04T15:42:17;101377.31;;;8.98;93.87
26775;BME280;14362;51.902;7.626;2024-02-04T15:46:19;101379.94;;;9.02;93.86
26775;BME280;14362;51.902;7.626;2024-02-04T15:50:21;101379.94;;;9.04;93.54
26775;BME280;14362;51.902;7.626;2024-02-04T15:54:24;101377.31;;;8.99;93.29
26775;BME280;14362;51.902;7.626;2024-02-04T15:58:27;101362.47;;;8.94;93.57
26775;BME280;14362;51.902;7.626;2024-02-04T16:02:31;101352.84;;;8.96;93.39
26775;BME280;14362;51.902;7.626;2024-02-04T16:06:33;101349.31;;;8.97;93.39
26775;BME280;14362;51.902;7.626;2024-02-04T16:10:36;101355.44;;;8.94;93.27
26775;BME280;14362;51.902;7.626;2024-02-04T16:14:40;101366.88;;;8.93;93.60
26775;BME280;14362;51.902;7.626;2024-02-04T16:18:43;101360.72;;;8.96;93.62
26775;BME280;14362;51.902;7.626;2024-02-04T16:22:45;101358.09;;;8.97;93.48
26775;BME280;14362;51.902;7.626;2024-02-04T16:26:48;101351.09;;;8.93;93.35
26775;BME280;14362;51.902;7.626;2024-02-04T16:30:49;101332.72;;;8.93;93.10
26775;BME280;14362;51.902;7.626;2024-02-04T16:34:51;101334.47;;;8.93;93.62
26775;BME280;14362;51.902;7.626;2024-02-04T16:38:52;101333.59;;;8.92;93.70
26775;BME280;14362;51.902;7.626;2024-02-04T16:42:55;101327.44;;;8.96;94.29
26775;BME280;14362;51.902;7.626;2024-02-04T16:46:57;101314.28;;;9.01;93.81
26775;BME280;14362;51.902;7.626;2024-02-04T16:50:58;101319.53;;;8.98;94.03
26775;BME280;14362;51.902;7.626;2024-02-04T16:55:00;101323.91;;;9.00;94.26
26775;BME280;14362;51.902;7.626;2024-02-04T16:59:03;101311.63;;;9.04;94.11
26775;BME280;14362;51.902;7.626;2024-02-04T17:03:06;101321.25;;;9.11;94.12
26775;BME280;14362;51.902;7.626;2024-02-04T17:07:08;101325.63;;;9.09;94.23
26775;BME280;14362;51.902;7.626;2024-02-04T17:11:11;101290.56;;;9.12;94.42
26775;BME280;14362;51.902;7.626;2024-02-04T17:15:15;101301.06;;;9.13;94.46
26775;BME280;14362;51.902;7.626;2024-02-04T17:19:22;101294.97;;;9.13;94.67
26775;BME280;14362;51.902;7.626;2024-02-04T17:23:32;101294.91;;;9.16;94.75
26775;BME280;14362;51.902;7.626;2024-02-04T17:27:40;101295.78;;;9.15;94.44
26775;BME280;14362;51.902;7.626;2024-02-04T17:31:43;101283.53;;;9.17;94.66
26775;BME280;14362;51.902;7.626;2024-02-04T17:35:45;101285.31;;;9.16;94.44
26775;BME280;14362;51.902;7.626;2024-02-04T17:39:48;101280.91;;;9.18;94.64
26775;BME280;14362;51.902;7.626;2024-02-04T17:43:49;101287.03;;;9.19;94.77
26775;BME280;14362;51.902;7.626;2024-02-04T17:47:52;101281.72;;;9.23;94.66
26775;BME280;14362;51.902;7.626;2024-02-04T17:51:54;101292.25;;;9.22;94.79
26775;BME280;14362;51.902;7.626;2024-02-04T17:55:55;101309.72;;;9.28;94.93
26775;BME280;14362;51.902;7.626;2024-02-04T17:59:57;101304.47;;;9.28;94.79
26775;BME280;14362;51.902;7.626;2024-02-04T18:04:00;101298.38;;;9.26;94.89
26775;BME280;14362;51.902;7.626;2024-02-04T18:08:05;101286.94;;;9.30;95.14
26775;BME280;14362;51.902;7.626;2024-02-04T18:12:07;101308.00;;;9.28;94.99
26775;BME280;14362;51.902;7.626;2024-02-04T18:16:09;101298.31;;;9.30;94.86
26775;BME280;14362;51.902;7.626;2024-02-04T18:20:12;101291.28;;;9.34;95.23
26775;BME280;14362;51.902;7.626;2024-02-04T18:24:14;101294.81;;;9.31;94.97
26775;BME280;14362;51.902;7.626;2024-02-04T18:28:16;101286.03;;;9.34;94.78
26775;BME280;14362;51.902;7.626;2024-02-04T18:32:17;101283.41;;;9.34;94.83
26775;BME280;14362;51.902;7.626;2024-02-04T18:36:22;101272.03;;;9.33;94.74
26775;BME280;14362;51.902;7.626;2024-02-04T18:40:26;101254.53;;;9.32;94.85
26775;BME280;14362;51.902;7.626;2024-02-04T18:44:27;101265.94;;;9.30;94.59
26775;BME280;14362;51.902;7.626;2024-02-04T18:48:30;101270.22;;;9.37;94.78
26775;BME280;14362;51.902;7.626;2024-02-04T18:52:32;101267.69;;;9.28;94.83
26775;BME280;14362;51.902;7.626;2024-02-04T18:56:34;101273.81;;;9.30;94.94
26775;BME280;14362;51.902;7.626;2024-02-04T19:00:36;101273.81;;;9.28;94.83
26775;BME280;14362;51.902;7.626;2024-02-04T19:04:37;101273.78;;;9.31;94.82
26775;BME280;14362;51.902;7.626;2024-02-04T19:08:42;101279.97;;;9.26;94.94
26775;BME280;14362;51.902;7.626;2024-02-04T19:12:43;101280.81;;;9.28;94.80
26775;BME280;14362;51.902;7.626;2024-02-04T19:16:45;101269.47;;;9.26;95.07
26775;BME280;14362;51.902;7.626;2024-02-04T19:20:46;101285.22;;;9.26;94.85
26775;BME280;14362;51.902;7.626;2024-02-04T19:24:49;101281.72;;;9.28;95.40
26775;BME280;14362;51.902;7.626;2024-02-04T19:28:50;101269.44;;;9.29;94.51
26775;BME280;14362;51.902;7.626;2024-02-04T19:32:53;101281.72;;;9.25;94.99
26775;BME280;14362;51.902;7.626;2024-02-04T19:36:55;101271.19;;;9.25;95.41
26775;BME280;14362;51.902;7.626;2024-02-04T19:40:58;101266.84;;;9.24;95.05
26775;BME280;14362;51.902;7.626;2024-02-04T19:44:59;101272.09;;;9.26;95.23
26775;BME280;14362;51.902;7.626;2024-02-04T19:49:01;101258.09;;;9.22;95.10
26775;BME280;14362;51.902;7.626;2024-02-04T19:53:03;101266.84;;;9.24;95.11
26775;BME280;14362;51.902;7.626;2024-02-04T19:57:06;101266.84;;;9.21;95.16
26775;BME280;14362;51.902;7.626;2024-02-04T20:01:08;101257.25;;;9.21;95.40
26775;BME280;14362;51.902;7.626;2024-02-04T20:05:10;101275.63;;;9.20;95.14
26775;BME280;14362;51.902;7.626;2024-02-04T20:09:11;101256.38;;;9.19;95.14
26775;BME280;14362;51.902;7.626;2024-02-04T20:13:14;101240.59;;;9.19;95.23
26775;BME280;14362;51.902;7.626;2024-02-04T20:17:16;101223.06;;;9.23;95.42
26775;BME280;14362;51.902;7.626;2024-02-04T20:21:17;101236.16;;;9.28;95.37
26775;BME280;14362;51.902;7.626;2024-02-04T20:25:18;101238.84;;;9.23;95.00
26775;BME280;14362;51.902;7.626;2024-02-04T20:29:24;101237.91;;;9.29;95.03
26775;BME280;14362;51.902;7.626;2024-02-04T20:33:26;101228.25;;;9.32;94.91
26775;BME280;14362;51.902;7.626;2024-02-04T20:37:28;101236.09;;;9.34;94.89
26775;BME280;14362;51.902;7.626;2024-02-04T20:41:30;101225.56;;;9.35;94.74
26775;BME280;14362;51.902;7.626;2024-02-04T20:45:33;101237.81;;;9.38;94.53
26775;BME280;14362;51.902;7.626;2024-02-04T20:49:34;101230.81;;;9.38;94.67
26775;BME280;14362;51.902;7.626;2024-02-04T20:53:36;101229.88;;;9.44;94.32
26775;BME280;14362;51.902;7.626;2024-02-04T20:57:38;101224.63;;;9.44;94.25
26775;BME280;14362;51.902;7.626;2024-02-04T21:01:40;101232.47;;;9.50;94.30
26775;BME280;14362;51.902;7.626;2024-02-04T21:05:42;101251.72;;;9.51;94.17
26775;BME280;14362;51.902;7.626;2024-02-04T21:09:44;101246.50;;;9.49;94.26
26775;BME280;14362;51.902;7.626;2024-02-04T21:13:46;101246.47;;;9.54;94.01
26775;BME280;14362;51.902;7.626;2024-02-04T21:17:49;101246.47;;;9.54;93.53
26775;BME280;14362;51.902;7.626;2024-02-04T21:21:50;101235.06;;;9.52;94.03
26775;BME280;14362;51.902;7.626;2024-02-04T21:25:52;101235.09;;;9.50;94.29